createdAt,value
2018-04-18T00:02:04.098Z,61.30
2018-04-18T00:04:33.807Z,61.79
2018-04-18T00:07:03.040Z,61.90
2018-04-18T00:09:32.325Z,61.93
2018-04-18T00:12:00.660Z,61.68
2018-04-18T00:14:29.065Z,61.09
2018-04-18T00:16:59.116Z,62.03
2018-04-18T00:19:27.551Z,62.21
2018-04-18T00:21:56.149Z,62.11
2018-04-18T00:24:24.590Z,61.94
2018-04-18T00:26:53.232Z,61.75
2018-04-18T00:29:22.529Z,61.68
2018-04-18T00:31:52.156Z,62.30
2018-04-18T00:34:21.964Z,62.18
2018-04-18T00:36:50.390Z,62.19
2018-04-18T00:39:18.754Z,62.17
2018-04-18T00:41:47.672Z,61.85
2018-04-18T00:44:16.512Z,61.77
2018-04-18T00:46:45.653Z,61.85
2018-04-18T00:49:14.021Z,61.59
2018-04-18T00:51:43.996Z,61.98
2018-04-18T00:54:13.461Z,61.55
2018-04-18T00:56:42.237Z,61.67
2018-04-18T00:59:11.964Z,62.11
2018-04-18T01:01:41.078Z,62.61
2018-04-18T01:04:09.812Z,63.09
2018-04-18T01:06:39.899Z,63.01
2018-04-18T01:09:08.529Z,62.98
2018-04-18T01:11:37.638Z,62.97
2018-04-18T01:14:06.784Z,63.18
2018-04-18T01:16:36.922Z,63.33
2018-04-18T01:19:06.236Z,63.29
2018-04-18T01:21:35.195Z,63.27
2018-04-18T01:24:04.974Z,63.48
2018-04-18T01:26:33.848Z,63.51
2018-04-18T01:29:02.351Z,63.57
2018-04-18T01:31:30.756Z,64.54
2018-04-18T01:33:59.448Z,65.42
2018-04-18T01:36:28.587Z,65.32
2018-04-18T01:38:58.067Z,64.76
2018-04-18T01:41:27.315Z,65.02
2018-04-18T01:43:58.044Z,65.40
2018-04-18T01:46:26.470Z,65.40
2018-04-18T01:52:04.694Z,65.61
2018-04-18T01:54:33.056Z,66.07
2018-04-18T01:57:02.240Z,66.40
2018-04-18T01:59:30.628Z,65.93
2018-04-18T02:01:59.007Z,65.79
2018-04-18T02:04:28.212Z,65.31
2018-04-18T02:06:56.545Z,65.66
2018-04-18T02:09:25.505Z,65.72
2018-04-18T02:11:54.678Z,66.14
2018-04-18T02:14:24.058Z,65.51
2018-04-18T02:16:54.166Z,64.93
2018-04-18T02:19:23.237Z,65.11
2018-04-18T02:21:51.731Z,65.12
2018-04-18T02:24:21.205Z,65.24
2018-04-18T02:26:50.936Z,65.62
2018-04-18T02:29:20.624Z,65.72
2018-04-18T02:31:49.153Z,65.21
2018-04-18T02:34:18.405Z,64.78
2018-04-18T02:36:47.633Z,64.65
2018-04-18T02:39:15.996Z,64.66
2018-04-18T02:41:46.102Z,64.03
2018-04-18T02:44:16.216Z,64.32
2018-04-18T02:46:46.041Z,64.74
2018-04-18T02:49:16.575Z,64.52
2018-04-18T02:51:45.758Z,64.55
2018-04-18T02:54:16.174Z,64.65
2018-04-18T02:56:45.853Z,64.63
2018-04-18T02:59:14.206Z,65.20
2018-04-18T03:01:42.587Z,65.08
2018-04-18T03:04:13.376Z,65.01
2018-04-18T03:06:42.666Z,66.22
2018-04-18T03:09:12.825Z,66.16
2018-04-18T03:11:43.715Z,66.61
2018-04-18T03:14:12.913Z,66.76
2018-04-18T03:16:41.732Z,67.25
2018-04-18T03:19:10.713Z,67.96
2018-04-18T03:21:40.913Z,67.82
2018-04-18T03:24:11.016Z,67.65
2018-04-18T03:26:39.384Z,67.52
2018-04-18T03:29:07.882Z,67.50
2018-04-18T03:31:36.317Z,68.18
2018-04-18T03:34:05.400Z,67.98
2018-04-18T03:36:34.991Z,68.45
2018-04-18T03:39:04.222Z,69.53
2018-04-18T03:41:33.401Z,70.39
2018-04-18T03:44:02.879Z,69.89
2018-04-18T03:46:31.740Z,70.16
2018-04-18T03:49:00.381Z,70.79
2018-04-18T03:51:30.429Z,70.78
2018-04-18T03:53:59.492Z,70.73
2018-04-18T03:56:29.405Z,71.40
2018-04-18T03:58:59.625Z,71.79
2018-04-18T04:01:29.427Z,71.62
2018-04-18T04:03:59.624Z,71.09
2018-04-18T04:06:27.998Z,70.88
2018-04-18T04:08:57.708Z,70.49
2018-04-18T04:11:26.465Z,70.63
2018-04-18T04:13:54.829Z,70.45
2018-04-18T04:16:35.583Z,70.72
2018-04-18T04:19:15.655Z,70.98
2018-04-18T04:21:55.846Z,70.89
2018-04-18T04:24:50.864Z,70.75
2018-04-18T04:27:19.681Z,71.04
2018-04-18T04:29:49.189Z,71.15
2018-04-18T04:32:17.791Z,70.93
2018-04-18T04:34:49.072Z,70.91
2018-04-18T04:37:19.953Z,70.98
2018-04-18T04:39:50.312Z,71.66
2018-04-18T04:42:18.770Z,72.42
2018-04-18T04:44:47.941Z,72.98
2018-04-18T04:47:17.970Z,73.21
2018-04-18T04:49:47.651Z,73.65
2018-04-18T04:52:16.915Z,73.75
2018-04-18T04:54:45.304Z,73.78
2018-04-18T04:57:14.484Z,73.54
2018-04-18T04:59:44.304Z,73.60
2018-04-18T05:02:12.725Z,73.44
2018-04-18T05:04:41.317Z,73.53
2018-04-18T05:07:09.689Z,73.87
2018-04-18T05:09:38.977Z,73.27
2018-04-18T05:12:07.496Z,72.97
2018-04-18T05:14:37.127Z,72.81
2018-04-18T05:17:05.501Z,72.94
2018-04-18T05:19:35.412Z,72.84
2018-04-18T05:22:04.342Z,72.70
2018-04-18T05:24:33.566Z,72.52
2018-04-18T05:27:04.350Z,72.40
2018-04-18T05:29:33.454Z,73.74
2018-04-18T05:32:01.794Z,73.58
2018-04-18T05:34:31.329Z,73.25
2018-04-18T05:36:59.970Z,73.06
2018-04-18T05:39:29.320Z,72.74
2018-04-18T05:41:58.390Z,72.41
2018-04-18T05:44:27.769Z,72.63
2018-04-18T05:46:57.193Z,72.76
2018-04-18T05:49:26.192Z,72.33
2018-04-18T05:51:54.637Z,72.20
2018-04-18T05:54:23.933Z,71.68
2018-04-18T05:56:53.857Z,71.59
2018-04-18T05:59:23.068Z,71.43
2018-04-18T06:01:53.062Z,71.51
2018-04-18T06:04:22.313Z,72.26
2018-04-18T06:06:52.005Z,73.10
2018-04-18T06:09:21.589Z,72.97
2018-04-18T06:11:50.508Z,73.12
2018-04-18T06:14:18.893Z,73.24
2018-04-18T06:16:47.317Z,72.90
2018-04-18T06:19:17.239Z,73.69
2018-04-18T06:21:46.366Z,72.54
2018-04-18T06:24:14.889Z,72.34
2018-04-18T06:26:45.064Z,71.80
2018-04-18T06:29:14.002Z,72.02
2018-04-18T06:31:42.578Z,72.03
2018-04-18T06:34:11.999Z,71.99
2018-04-18T06:36:41.208Z,71.49
2018-04-18T06:39:10.934Z,71.25
2018-04-18T06:41:39.305Z,71.19
2018-04-18T06:44:08.275Z,70.86
2018-04-18T06:46:37.732Z,70.00
2018-04-18T06:49:06.586Z,69.79
2018-04-18T06:51:36.739Z,69.58
2018-04-18T06:54:06.488Z,68.61
2018-04-18T06:56:36.091Z,68.59
2018-04-18T06:59:04.531Z,68.99
2018-04-18T07:01:33.686Z,69.17
2018-04-18T07:04:03.301Z,68.88
2018-04-18T07:06:31.929Z,68.64
2018-04-18T07:09:01.526Z,67.94
2018-04-18T07:11:31.209Z,67.57
2018-04-18T07:14:00.700Z,67.48
2018-04-18T07:16:30.067Z,66.47
2018-04-18T07:18:58.451Z,66.07
2018-04-18T07:21:27.710Z,66.05
2018-04-18T07:23:56.745Z,64.59
2018-04-18T07:26:26.350Z,64.48
2018-04-18T07:28:55.924Z,64.32
2018-04-18T07:31:25.425Z,63.95
2018-04-18T07:33:53.760Z,63.45
2018-04-18T07:36:23.391Z,62.37
2018-04-18T07:38:52.613Z,62.36
2018-04-18T07:41:22.172Z,62.24
2018-04-18T07:43:50.548Z,61.98
2018-04-18T07:46:19.043Z,61.56
2018-04-18T07:48:47.566Z,60.24
2018-04-18T07:51:17.746Z,60.56
2018-04-18T07:53:47.503Z,60.50
2018-04-18T07:56:16.706Z,58.77
2018-04-18T07:58:45.076Z,59.89
2018-04-18T08:01:14.323Z,59.68
2018-04-18T08:03:42.709Z,57.80
2018-04-18T08:06:15.091Z,57.85
2018-04-18T08:08:45.292Z,58.56
2018-04-18T08:11:15.860Z,58.39
2018-04-18T08:13:45.058Z,57.63
2018-04-18T08:16:13.465Z,54.06
2018-04-18T08:18:42.359Z,55.59
2018-04-18T08:21:13.502Z,55.13
2018-04-18T08:23:41.937Z,54.48
2018-04-18T08:26:11.082Z,53.77
2018-04-18T08:28:40.639Z,53.12
2018-04-18T08:31:09.935Z,52.54
2018-04-18T08:33:39.232Z,52.34
2018-04-18T08:36:07.603Z,50.96
2018-04-18T08:38:36.431Z,51.48
2018-04-18T08:41:05.551Z,49.38
2018-04-18T08:43:34.830Z,49.34
2018-04-18T08:46:03.231Z,47.44
2018-04-18T08:48:32.737Z,46.30
2018-04-18T08:51:01.914Z,46.26
2018-04-18T08:53:30.386Z,47.76
2018-04-18T08:56:00.538Z,48.74
2018-04-18T08:58:28.900Z,48.03
2018-04-18T09:00:58.353Z,47.86
2018-04-18T09:03:27.599Z,47.46
2018-04-18T09:05:56.036Z,46.49
2018-04-18T09:08:24.362Z,45.34
2018-04-18T09:10:53.441Z,45.79
2018-04-18T09:13:22.065Z,46.04
2018-04-18T09:15:51.226Z,45.74
2018-04-18T09:18:20.357Z,46.83
2018-04-18T09:20:49.983Z,47.16
2018-04-18T09:23:19.504Z,46.12
2018-04-18T09:25:48.646Z,45.41
2018-04-18T09:28:18.002Z,45.30
2018-04-18T09:30:47.333Z,46.05
2018-04-18T09:33:15.971Z,46.97
2018-04-18T09:35:45.563Z,45.92
2018-04-18T09:38:14.734Z,45.78
2018-04-18T09:40:43.876Z,44.40
2018-04-18T09:43:13.127Z,43.11
2018-04-18T09:45:48.717Z,44.12
2018-04-18T09:48:17.807Z,42.07
2018-04-18T09:50:48.320Z,40.12
2018-04-18T09:53:19.470Z,40.08
2018-04-18T09:55:47.912Z,38.26
2018-04-18T09:58:16.323Z,38.19
2018-04-18T10:00:50.686Z,38.05
2018-04-18T10:03:20.781Z,35.16
2018-04-18T10:05:49.214Z,35.37
2018-04-18T10:08:19.024Z,34.91
2018-04-18T10:10:48.026Z,32.44
2018-04-18T10:13:16.400Z,29.17
2018-04-18T10:15:44.734Z,27.65
2018-04-18T10:18:13.094Z,28.09
2018-04-18T10:20:41.541Z,27.51
2018-04-18T10:23:09.883Z,27.36
2018-04-18T10:25:39.229Z,26.40
2018-04-18T10:28:07.583Z,25.63
2018-04-18T10:30:37.118Z,26.10
2018-04-18T10:33:05.867Z,26.87
2018-04-18T10:35:36.014Z,26.54
2018-04-18T10:38:04.996Z,27.97
2018-04-18T10:40:34.253Z,28.10
2018-04-18T10:43:04.531Z,27.89
2018-04-18T10:45:33.316Z,26.45
2018-04-18T10:48:02.822Z,26.27
2018-04-18T10:50:32.627Z,26.91
2018-04-18T10:53:01.792Z,25.56
2018-04-18T10:55:31.740Z,25.58
2018-04-18T10:58:00.372Z,27.80
2018-04-18T11:00:29.258Z,27.33
2018-04-18T11:02:57.652Z,25.41
2018-04-18T11:05:27.286Z,24.50
2018-04-18T11:07:55.635Z,24.60
2018-04-18T11:10:26.763Z,25.39
2018-04-18T11:12:56.698Z,24.16
2018-04-18T11:15:27.422Z,23.33
2018-04-18T11:17:55.826Z,25.48
2018-04-18T11:20:25.034Z,26.37
2018-04-18T11:22:55.025Z,24.39
2018-04-18T11:25:25.335Z,24.91
2018-04-18T11:27:55.317Z,22.73
2018-04-18T11:30:23.743Z,23.62
2018-04-18T11:32:52.415Z,23.98
2018-04-18T11:35:22.310Z,22.32
2018-04-18T11:37:51.454Z,23.92
2018-04-18T11:40:20.735Z,22.96
2018-04-18T11:42:49.846Z,23.03
2018-04-18T11:45:18.242Z,23.73
2018-04-18T11:47:48.794Z,24.21
2018-04-18T11:50:17.920Z,23.24
2018-04-18T11:52:46.557Z,22.75
2018-04-18T11:55:15.809Z,23.20
2018-04-18T11:57:45.031Z,22.58
2018-04-18T12:00:14.329Z,22.76
2018-04-18T12:02:44.150Z,21.07
2018-04-18T12:05:12.521Z,21.25
2018-04-18T12:07:42.591Z,21.91
2018-04-18T12:10:11.668Z,21.15
2018-04-18T12:12:44.405Z,21.38
2018-04-18T12:15:13.348Z,21.24
2018-04-18T12:17:43.745Z,21.69
2018-04-18T12:20:12.100Z,21.72
2018-04-18T12:22:42.239Z,21.44
2018-04-18T12:25:12.437Z,22.23
2018-04-18T12:27:41.135Z,21.96
2018-04-18T12:30:10.837Z,22.50
2018-04-18T12:32:40.382Z,22.28
2018-04-18T12:35:10.507Z,21.86
2018-04-18T12:37:40.633Z,23.47
2018-04-18T12:40:09.928Z,23.88
2018-04-18T12:42:39.968Z,23.86
2018-04-18T12:45:08.828Z,22.44
2018-04-18T12:47:37.434Z,24.55
2018-04-18T12:50:09.799Z,22.52
2018-04-18T12:52:40.814Z,21.42
2018-04-18T12:55:12.247Z,20.69
2018-04-18T12:57:41.872Z,20.62
2018-04-18T13:00:12.252Z,21.01
2018-04-18T13:02:41.820Z,20.82
2018-04-18T13:05:12.119Z,20.81
2018-04-18T13:07:42.893Z,20.83
2018-04-18T13:10:11.565Z,21.69
2018-04-18T13:12:40.854Z,20.39
2018-04-18T13:15:09.305Z,20.85
2018-04-18T13:17:38.083Z,21.47
2018-04-18T13:20:08.816Z,20.14
2018-04-18T13:25:07.174Z,21.18
2018-04-18T13:27:36.533Z,20.01
2018-04-18T13:30:05.296Z,19.52
2018-04-18T13:32:33.755Z,20.57
2018-04-18T13:35:03.222Z,20.78
2018-04-18T13:37:32.831Z,19.12
2018-04-18T13:40:01.717Z,18.99
2018-04-18T13:42:31.042Z,18.99
2018-04-18T13:45:01.305Z,18.61
2018-04-18T13:47:34.412Z,18.75
2018-04-18T13:50:02.750Z,19.00
2018-04-18T13:52:31.947Z,19.24
2018-04-18T13:55:01.189Z,19.50
2018-04-18T13:57:31.427Z,19.24
2018-04-18T14:00:00.212Z,18.54
2018-04-18T14:02:31.921Z,18.83
2018-04-18T14:05:02.271Z,18.34
2018-04-18T14:07:31.889Z,18.46
2018-04-18T14:10:00.286Z,18.07
2018-04-18T14:12:30.035Z,17.35
2018-04-18T14:15:01.623Z,17.93
2018-04-18T14:17:30.715Z,17.66
2018-04-18T14:20:02.329Z,17.24
2018-04-18T14:22:32.398Z,17.87
2018-04-18T14:25:01.530Z,17.25
2018-04-18T14:27:30.758Z,16.81
2018-04-18T14:30:00.869Z,16.71
2018-04-18T14:32:29.625Z,16.96
2018-04-18T14:34:58.003Z,17.06
2018-04-18T14:37:27.236Z,15.76
2018-04-18T14:39:56.214Z,15.82
2018-04-18T14:42:27.431Z,15.43
2018-04-18T14:44:56.354Z,15.71
2018-04-18T14:47:25.159Z,15.81
2018-04-18T14:49:55.211Z,15.47
2018-04-18T14:52:24.526Z,15.03
2018-04-18T14:54:53.332Z,15.24
2018-04-18T14:57:23.490Z,16.06
2018-04-18T14:59:53.599Z,16.56
2018-04-18T15:02:23.409Z,14.21
2018-04-18T15:04:52.643Z,15.44
2018-04-18T15:07:22.117Z,15.36
2018-04-18T15:09:50.539Z,15.20
2018-04-18T15:12:20.373Z,14.52
2018-04-18T15:14:56.233Z,14.93
2018-04-18T15:17:26.885Z,14.94
2018-04-18T15:19:55.220Z,15.81
2018-04-18T15:22:24.687Z,15.67
2018-04-18T15:24:53.533Z,14.78
2018-04-18T15:27:21.928Z,14.67
2018-04-18T15:29:51.810Z,15.78
2018-04-18T15:32:22.580Z,15.08
2018-04-18T15:34:51.489Z,14.89
2018-04-18T15:37:20.853Z,15.40
2018-04-18T15:39:52.236Z,15.66
2018-04-18T15:42:22.612Z,15.75
2018-04-18T15:44:51.990Z,16.23
2018-04-18T15:47:21.981Z,15.87
2018-04-18T15:49:53.058Z,15.96
2018-04-18T15:52:24.052Z,15.38
2018-04-18T15:54:54.123Z,15.66
2018-04-18T15:57:23.593Z,15.62
2018-04-18T15:59:51.968Z,16.14
2018-04-18T16:02:21.027Z,16.60
2018-04-18T16:04:52.800Z,16.77
2018-04-18T16:07:23.771Z,16.41
2018-04-18T16:09:53.274Z,16.20
2018-04-18T16:12:29.081Z,16.34
2018-04-18T16:15:01.365Z,16.26
2018-04-18T16:17:30.008Z,16.69
2018-04-18T16:19:59.398Z,16.41
2018-04-18T16:22:27.934Z,16.17
2018-04-18T16:24:59.206Z,16.21
2018-04-18T16:27:27.583Z,15.57
2018-04-18T16:29:56.857Z,15.94
2018-04-18T16:32:26.063Z,15.79
2018-04-18T16:34:55.794Z,16.05
2018-04-18T16:37:25.276Z,15.28
2018-04-18T16:39:54.618Z,15.62
2018-04-18T16:42:22.938Z,15.56
2018-04-18T16:44:52.465Z,14.74
2018-04-18T16:47:23.247Z,14.78
2018-04-18T16:49:52.618Z,14.94
2018-04-18T16:52:21.998Z,15.22
2018-04-18T16:54:51.509Z,15.52
2018-04-18T16:57:19.888Z,15.24
2018-04-18T16:59:49.812Z,15.16
2018-04-18T17:02:19.966Z,15.30
2018-04-18T17:04:55.331Z,15.21
2018-04-18T17:07:26.297Z,15.26
2018-04-18T17:09:57.054Z,15.64
2018-04-18T17:12:27.357Z,15.68
2018-04-18T17:14:56.516Z,16.07
2018-04-18T17:17:37.620Z,16.02
2018-04-18T17:20:14.110Z,16.79
2018-04-18T17:22:43.977Z,17.68
2018-04-18T17:25:13.568Z,18.14
2018-04-18T17:27:41.993Z,18.47
2018-04-18T17:30:11.707Z,18.79
2018-04-18T17:32:40.798Z,18.81
2018-04-18T17:35:10.930Z,18.69
2018-04-18T17:37:45.001Z,19.24
2018-04-18T17:40:15.513Z,19.69
2018-04-18T17:42:45.097Z,20.45
2018-04-18T17:45:14.855Z,20.71
2018-04-18T17:47:45.184Z,21.03
2018-04-18T17:50:13.698Z,21.78
2018-04-18T17:52:42.812Z,22.03
2018-04-18T17:55:13.050Z,21.83
2018-04-18T17:57:42.601Z,22.08
2018-04-18T18:00:12.319Z,21.71
2018-04-18T18:02:41.517Z,21.55
2018-04-18T18:05:10.219Z,22.20
2018-04-18T18:07:43.800Z,23.19
2018-04-18T18:10:17.309Z,23.60
2018-04-18T18:12:46.863Z,24.48
2018-04-18T18:15:15.260Z,25.35
2018-04-18T18:17:45.928Z,26.65
2018-04-18T18:20:14.290Z,27.02
2018-04-18T18:22:43.558Z,27.45
2018-04-18T18:25:13.810Z,27.97
2018-04-18T18:27:45.986Z,28.21
2018-04-18T18:30:16.981Z,28.63
2018-04-18T18:32:47.112Z,28.83
2018-04-18T18:35:15.458Z,29.06
2018-04-18T18:37:44.884Z,30.65
2018-04-18T18:40:14.211Z,30.77
2018-04-18T18:42:43.542Z,31.96
2018-04-18T18:45:12.128Z,31.26
2018-04-18T18:47:41.142Z,31.62
2018-04-18T18:50:10.178Z,33.02
2018-04-18T18:52:39.630Z,34.67
2018-04-18T18:55:08.009Z,32.42
2018-04-18T18:57:37.190Z,31.76
2018-04-18T19:00:06.282Z,32.46
2018-04-18T19:02:35.738Z,31.74
2018-04-18T19:05:05.343Z,32.37
2018-04-18T19:07:34.258Z,33.01
2018-04-18T19:10:03.997Z,33.74
2018-04-18T19:12:33.485Z,32.96
2018-04-18T19:15:02.748Z,33.12
2018-04-18T19:17:31.170Z,35.28
2018-04-18T19:20:02.030Z,34.98
2018-04-18T19:22:32.649Z,34.56
2018-04-18T19:25:03.246Z,33.88
2018-04-18T19:27:33.085Z,36.41
2018-04-18T19:30:07.175Z,38.86
2018-04-18T19:32:37.349Z,40.31
2018-04-18T19:35:07.981Z,41.18
2018-04-18T19:37:45.448Z,40.75
2018-04-18T19:40:15.319Z,36.74
2018-04-18T19:42:44.258Z,37.67
2018-04-18T19:45:12.701Z,36.34
2018-04-18T19:47:41.917Z,36.71
2018-04-18T19:50:12.863Z,36.88
2018-04-18T19:52:41.192Z,36.64
2018-04-18T19:55:09.608Z,36.93
2018-04-18T19:57:39.444Z,37.37
2018-04-18T20:00:07.840Z,37.28
2018-04-18T20:02:37.934Z,37.28
2018-04-18T20:05:06.350Z,37.26
2018-04-18T20:07:34.705Z,37.49
2018-04-18T20:10:04.505Z,37.64
2018-04-18T20:12:33.948Z,37.95
2018-04-18T20:15:03.386Z,37.85
2018-04-18T20:17:31.762Z,38.41
2018-04-18T20:20:01.688Z,39.13
2018-04-18T20:22:31.087Z,39.02
2018-04-18T20:24:59.447Z,40.18
2018-04-18T20:27:28.625Z,41.98
2018-04-18T20:29:58.304Z,42.79
2018-04-18T20:32:27.826Z,42.44
2018-04-18T20:34:57.057Z,43.20
2018-04-18T20:37:26.357Z,44.45
2018-04-18T20:39:54.792Z,43.96
2018-04-18T20:42:24.269Z,42.67
2018-04-18T20:44:52.870Z,43.35
2018-04-18T20:47:22.259Z,43.27
2018-04-18T20:49:51.270Z,43.29
2018-04-18T20:52:20.925Z,42.01
2018-04-18T20:54:50.438Z,40.82
2018-04-18T20:57:19.006Z,41.80
2018-04-18T20:59:49.650Z,43.74
2018-04-18T21:02:20.946Z,42.01
2018-04-18T21:04:49.292Z,41.11
2018-04-18T21:07:17.695Z,40.26
2018-04-18T21:09:47.721Z,39.83
2018-04-18T21:12:17.025Z,39.87
2018-04-18T21:14:45.505Z,39.67
2018-04-18T21:17:15.343Z,39.34
2018-04-18T21:19:45.525Z,39.90
2018-04-18T21:22:14.816Z,39.99
2018-04-18T21:24:43.952Z,40.06
2018-04-18T21:27:13.262Z,39.87
2018-04-18T21:29:41.706Z,41.14
2018-04-18T21:32:11.718Z,40.55
2018-04-18T21:34:40.124Z,40.33
2018-04-18T21:37:09.465Z,40.48
2018-04-18T21:39:37.932Z,40.31
2018-04-18T21:42:07.999Z,40.83
2018-04-18T21:44:37.649Z,40.30
2018-04-18T21:47:07.607Z,40.37
2018-04-18T21:49:37.206Z,40.58
2018-04-18T21:52:07.264Z,40.58
2018-04-18T21:54:36.651Z,40.86
2018-04-18T21:57:05.253Z,40.26
2018-04-18T21:59:35.390Z,42.01
2018-04-18T22:02:04.241Z,43.37
2018-04-18T22:04:33.075Z,44.83
2018-04-18T22:07:03.512Z,44.94
2018-04-18T22:09:32.425Z,43.55
2018-04-18T22:12:02.473Z,43.57
2018-04-18T22:14:32.013Z,41.98
2018-04-18T22:17:02.604Z,41.52
2018-04-18T22:19:31.610Z,41.96
2018-04-18T22:22:01.811Z,41.18
2018-04-18T22:24:30.803Z,41.19
2018-04-18T22:26:59.218Z,41.58
2018-04-18T22:29:28.523Z,41.81
2018-04-18T22:31:57.597Z,42.24
2018-04-18T22:34:26.878Z,42.26
2018-04-18T22:36:57.009Z,42.31
2018-04-18T22:39:27.149Z,42.38
2018-04-18T22:41:55.531Z,42.34
2018-04-18T22:44:23.974Z,42.57
2018-04-18T22:46:53.422Z,42.73
2018-04-18T22:49:23.441Z,42.95
2018-04-18T22:51:52.084Z,43.10
2018-04-18T22:54:20.473Z,43.78
2018-04-18T22:56:49.618Z,43.46
2018-04-18T22:59:18.009Z,43.67
2018-04-18T23:01:48.186Z,43.78
2018-04-18T23:04:16.543Z,43.97
2018-04-18T23:06:44.916Z,44.42
2018-04-18T23:09:14.752Z,44.63
2018-04-18T23:11:43.193Z,44.65
2018-04-18T23:14:12.301Z,45.08
2018-04-18T23:16:41.697Z,45.04
2018-04-18T23:19:11.258Z,45.03
2018-04-18T23:21:40.495Z,45.20
2018-04-18T23:24:10.435Z,45.47
2018-04-18T23:26:39.549Z,45.75
2018-04-18T23:29:07.915Z,46.05
2018-04-18T23:31:36.837Z,45.98
2018-04-18T23:34:06.107Z,45.94
2018-04-18T23:36:36.398Z,46.18
2018-04-18T23:39:07.139Z,45.96
2018-04-18T23:41:36.177Z,46.08
2018-04-18T23:44:05.075Z,46.14
2018-04-18T23:46:35.266Z,46.35
2018-04-18T23:49:04.280Z,46.53
2018-04-18T23:51:33.157Z,46.65
2018-04-18T23:54:02.064Z,46.45
2018-04-18T23:56:31.185Z,46.69
2018-04-18T23:58:59.617Z,46.43
